createdAt,value
2018-02-08T00:00:59.141Z,150.03
2018-02-08T00:03:26.699Z,141.93
2018-02-08T00:05:54.197Z,147.33
2018-02-08T00:08:21.717Z,173.23
2018-02-08T00:10:49.275Z,152.57
2018-02-08T00:13:16.994Z,134.50
2018-02-08T00:15:44.496Z,163.50
2018-02-08T00:18:12.055Z,165.87
2018-02-08T00:20:39.616Z,156.37
2018-02-08T00:23:07.032Z,158.83
2018-02-08T00:25:35.393Z,153.10
2018-02-08T00:28:02.944Z,148.57
2018-02-08T00:30:30.380Z,150.77
2018-02-08T00:32:57.860Z,164.50
2018-02-08T00:35:25.420Z,159.57
2018-02-08T00:37:52.944Z,151.20
2018-02-08T00:40:20.501Z,147.43
2018-02-08T00:42:47.960Z,173.40
2018-02-08T00:45:15.414Z,136.97
2018-02-08T00:47:42.921Z,142.73
2018-02-08T00:50:10.572Z,158.87
2018-02-08T00:52:38.098Z,164.03
2018-02-08T00:55:05.553Z,151.63
2018-02-08T00:57:33.109Z,155.27
2018-02-08T01:00:00.604Z,139.47
2018-02-08T01:02:28.125Z,166.23
2018-02-08T01:04:55.787Z,161.97
2018-02-08T01:07:23.283Z,158.67
2018-02-08T01:09:50.804Z,150.67
2018-02-08T01:12:18.212Z,156.50
2018-02-08T01:14:45.718Z,157.77
2018-02-08T01:17:13.278Z,165.63
2018-02-08T01:19:40.734Z,170.07
2018-02-08T01:22:08.294Z,157.20
2018-02-08T01:24:35.788Z,161.77
2018-02-08T01:27:03.313Z,162.53
2018-02-08T01:29:30.870Z,155.87
2018-02-08T01:31:58.531Z,169.30
2018-02-08T01:34:26.092Z,144.00
2018-02-08T01:36:53.650Z,160.20
2018-02-08T01:39:21.210Z,141.80
2018-02-08T01:41:48.704Z,160.10
2018-02-08T01:44:16.329Z,163.80
2018-02-08T01:46:43.780Z,155.00
2018-02-08T01:49:11.346Z,153.23
2018-02-08T01:51:38.905Z,155.13
2018-02-08T01:54:06.464Z,148.13
2018-02-08T01:56:34.024Z,146.47
2018-02-08T01:59:01.584Z,147.87
2018-02-08T02:01:29.142Z,164.93
2018-02-08T02:03:56.569Z,150.93
2018-02-08T02:06:24.095Z,139.23
2018-02-08T02:08:51.721Z,152.73
2018-02-08T02:11:19.280Z,138.00
2018-02-08T02:13:46.772Z,148.10
2018-02-08T02:16:14.398Z,161.87
2018-02-08T02:18:41.955Z,154.60
2018-02-08T02:21:09.515Z,148.73
2018-02-08T02:23:37.075Z,166.87
2018-02-08T02:26:04.529Z,156.17
2018-02-08T02:28:32.091Z,155.53
2018-02-08T02:30:59.651Z,137.10
2018-02-08T02:33:27.211Z,160.17
2018-02-08T02:35:54.770Z,147.10
2018-02-08T02:38:22.328Z,151.60
2018-02-08T02:40:49.889Z,154.53
2018-02-08T02:43:17.448Z,148.23
2018-02-08T02:45:45.008Z,139.50
2018-02-08T02:48:12.504Z,138.87
2018-02-08T02:50:40.127Z,147.20
2018-02-08T02:53:07.686Z,136.33
2018-02-08T02:55:35.180Z,159.30
2018-02-08T02:58:02.651Z,146.67
2018-02-08T03:00:30.159Z,155.27
2018-02-08T03:02:57.757Z,162.43
2018-02-08T03:05:25.279Z,149.70
2018-02-08T03:07:52.837Z,154.63
2018-02-08T03:10:20.397Z,144.13
2018-02-08T03:12:47.957Z,141.83
2018-02-08T03:15:15.516Z,152.63
2018-02-08T03:17:42.973Z,146.03
2018-02-08T03:20:10.531Z,156.60
2018-02-08T03:22:37.989Z,150.70
2018-02-08T03:25:05.550Z,142.73
2018-02-08T03:27:33.313Z,156.63
2018-02-08T03:30:00.814Z,137.93
2018-02-08T03:32:28.330Z,153.07
2018-02-08T03:34:55.890Z,157.87
2018-02-08T03:37:23.347Z,141.40
2018-02-08T03:39:50.905Z,147.43
2018-02-08T03:42:18.567Z,139.27
2018-02-08T03:44:46.128Z,141.00
2018-02-08T03:47:13.547Z,144.53
2018-02-08T03:49:41.091Z,148.67
2018-02-08T03:52:08.536Z,151.70
2018-02-08T03:54:36.058Z,148.17
2018-02-08T03:57:03.617Z,147.63
2018-02-08T03:59:31.177Z,151.13
2018-02-08T04:01:58.736Z,152.97
2018-02-08T04:04:26.295Z,145.73
2018-02-08T04:06:53.855Z,153.60
2018-02-08T04:09:21.415Z,155.77
2018-02-08T04:11:48.907Z,167.07
2018-02-08T04:14:16.378Z,152.90
2018-02-08T04:16:43.991Z,166.57
2018-02-08T04:19:11.550Z,137.50
2018-02-08T04:21:39.007Z,146.47
2018-02-08T04:24:06.504Z,136.10
2018-02-08T04:26:33.917Z,146.87
2018-02-08T04:29:01.379Z,153.10
2018-02-08T04:31:28.929Z,156.00
2018-02-08T04:33:56.497Z,156.40
2018-02-08T04:36:24.057Z,137.80
2018-02-08T04:38:57.453Z,158.07
2018-02-08T04:41:30.744Z,163.17
2018-02-08T04:44:00.150Z,148.47
2018-02-08T04:46:33.443Z,147.93
2018-02-08T04:49:00.952Z,151.70
2018-02-08T04:51:28.460Z,148.10
2018-02-08T04:53:55.871Z,161.60
2018-02-08T04:56:23.477Z,140.40
2018-02-08T04:58:51.036Z,149.50
2018-02-08T05:01:18.595Z,149.00
2018-02-08T05:03:46.156Z,143.97
2018-02-08T05:06:13.647Z,163.20
2018-02-08T05:08:41.275Z,147.40
2018-02-08T05:11:08.768Z,153.80
2018-02-08T05:13:36.290Z,150.77
2018-02-08T05:16:03.850Z,156.43
2018-02-08T05:18:31.409Z,163.07
2018-02-08T05:20:58.969Z,143.03
2018-02-08T05:23:26.527Z,151.57
2018-02-08T05:25:54.025Z,149.10
2018-02-08T05:28:21.482Z,153.57
2018-02-08T05:30:48.936Z,153.47
2018-02-08T05:33:16.663Z,147.90
2018-02-08T05:35:44.222Z,140.83
2018-02-08T05:38:11.783Z,149.07
2018-02-08T05:40:39.343Z,160.30
2018-02-08T05:43:06.901Z,152.17
2018-02-08T05:45:34.660Z,148.63
2018-02-08T05:48:02.160Z,173.13
2018-02-08T05:50:30.399Z,167.20
2018-02-08T05:52:57.978Z,135.87
2018-02-08T05:55:25.452Z,153.07
2018-02-08T05:57:52.975Z,135.43
2018-02-08T06:00:20.472Z,148.57
2018-02-08T06:02:47.991Z,163.07
2018-02-08T06:05:15.551Z,144.07
2018-02-08T06:07:43.109Z,148.73
2018-02-08T06:10:10.669Z,144.43
2018-02-08T06:12:38.229Z,151.17
2018-02-08T06:15:05.789Z,147.30
2018-02-08T06:17:33.349Z,146.57
2018-02-08T06:20:00.917Z,142.87
2018-02-08T06:22:28.467Z,138.23
2018-02-08T06:24:59.200Z,158.03
2018-02-08T06:27:26.862Z,161.77
2018-02-08T06:29:54.424Z,159.63
2018-02-08T06:32:21.879Z,152.80
2018-02-08T06:34:49.438Z,163.33
2018-02-08T06:37:16.998Z,153.70
2018-02-08T06:39:44.556Z,155.77
2018-02-08T06:42:12.117Z,172.93
2018-02-08T06:44:44.753Z,148.43
2018-02-08T06:47:12.869Z,164.90
2018-02-08T06:49:40.773Z,157.77
2018-02-08T06:52:08.396Z,168.17
2018-02-08T06:54:35.954Z,155.03
2018-02-08T06:57:04.855Z,151.43
2018-02-08T06:59:32.406Z,163.07
2018-02-08T07:01:59.964Z,159.07
2018-02-08T07:04:27.629Z,152.77
2018-02-08T07:06:55.185Z,154.00
2018-02-08T07:09:22.654Z,144.97
2018-02-08T07:11:50.152Z,149.20
2018-02-08T07:14:17.660Z,163.40
2018-02-08T07:16:45.096Z,164.00
2018-02-08T07:19:12.677Z,161.73
2018-02-08T07:21:40.235Z,160.17
2018-02-08T07:24:07.834Z,144.63
2018-02-08T07:26:35.354Z,150.40
2018-02-08T07:29:02.852Z,163.10
2018-02-08T07:31:30.371Z,146.80
2018-02-08T07:33:57.829Z,174.20
2018-02-08T07:36:25.387Z,155.57
2018-02-08T07:38:52.845Z,167.50
2018-02-08T07:41:20.301Z,149.23
2018-02-08T07:43:47.770Z,155.43
2018-02-08T07:46:16.204Z,170.07
2018-02-08T07:48:44.004Z,168.30
2018-02-08T07:51:11.564Z,149.00
2018-02-08T07:53:39.122Z,158.20
2018-02-08T07:56:06.683Z,170.80
2018-02-08T07:58:34.243Z,149.90
2018-02-08T08:01:01.802Z,165.93
2018-02-08T08:03:29.463Z,158.50
2018-02-08T08:05:56.919Z,154.37
2018-02-08T08:08:24.480Z,160.03
2018-02-08T08:10:52.040Z,162.47
2018-02-08T08:13:19.486Z,169.80
2018-02-08T08:15:47.055Z,155.97
2018-02-08T08:18:14.620Z,174.53
2018-02-08T08:20:42.108Z,169.30
2018-02-08T08:23:09.631Z,139.97
2018-02-08T08:25:37.192Z,145.63
2018-02-08T08:28:04.956Z,162.70
2018-02-08T08:30:32.515Z,155.17
2018-02-08T08:33:00.009Z,154.27
2018-02-08T08:35:27.440Z,173.53
2018-02-08T08:37:55.193Z,153.63
2018-02-08T08:40:22.753Z,153.80
2018-02-08T08:42:50.418Z,145.67
2018-02-08T08:45:17.976Z,155.00
2018-02-08T08:47:45.399Z,144.17
2018-02-08T08:50:12.990Z,135.40
2018-02-08T08:52:41.266Z,136.73
2018-02-08T08:55:08.929Z,123.23
2018-02-08T08:57:36.489Z,136.60
2018-02-08T09:00:04.047Z,128.73
2018-02-08T09:02:31.607Z,122.00
2018-02-08T09:04:59.068Z,122.17
2018-02-08T09:07:26.560Z,129.60
2018-02-08T09:09:54.183Z,122.73
2018-02-08T09:12:21.608Z,117.53
2018-02-08T09:14:49.049Z,119.60
2018-02-08T09:17:16.592Z,129.80
2018-02-08T09:19:44.007Z,127.93
2018-02-08T09:22:11.571Z,134.23
2018-02-08T09:24:39.129Z,119.07
2018-02-08T09:27:06.690Z,120.80
2018-02-08T09:29:34.248Z,125.07
2018-02-08T09:32:01.745Z,125.40
2018-02-08T09:34:29.366Z,132.23
2018-02-08T09:36:56.927Z,122.30
2018-02-08T09:39:24.486Z,128.70
2018-02-08T09:41:52.047Z,130.63
2018-02-08T09:44:19.606Z,127.33
2018-02-08T09:46:47.100Z,130.63
2018-02-08T09:49:14.725Z,121.00
2018-02-08T09:51:42.282Z,120.83
2018-02-08T09:54:09.843Z,138.80
2018-02-08T09:56:37.403Z,150.53
2018-02-08T09:59:04.859Z,140.33
2018-02-08T10:01:32.418Z,138.93
2018-02-08T10:03:59.877Z,121.03
2018-02-08T10:06:27.436Z,144.90
2018-02-08T10:08:55.097Z,143.93
2018-02-08T10:11:22.593Z,124.53
2018-02-08T10:13:50.012Z,136.37
2018-02-08T10:16:17.571Z,121.80
2018-02-08T10:18:45.130Z,125.23
2018-02-08T10:21:12.580Z,126.80
2018-02-08T10:23:40.147Z,119.67
2018-02-08T10:26:07.706Z,120.30
2018-02-08T10:28:35.265Z,121.57
2018-02-08T10:31:02.825Z,114.87
2018-02-08T10:33:30.398Z,117.87
2018-02-08T10:35:57.967Z,108.30
2018-02-08T10:38:25.505Z,113.43
2018-02-08T10:40:52.920Z,109.17
2018-02-08T10:43:20.520Z,106.33
2018-02-08T10:45:48.078Z,102.60
2018-02-08T10:48:15.638Z,109.53
2018-02-08T10:50:43.140Z,116.97
2018-02-08T10:53:10.691Z,112.43
2018-02-08T10:56:00.538Z,103.07
2018-02-08T10:58:28.099Z,96.43
2018-02-08T11:00:55.591Z,101.87
2018-02-08T11:03:23.117Z,102.77
2018-02-08T11:05:50.674Z,99.70
2018-02-08T11:08:18.233Z,98.27
2018-02-08T11:10:45.792Z,99.87
2018-02-08T11:13:13.455Z,89.93
2018-02-08T11:15:41.014Z,87.20
2018-02-08T11:18:08.508Z,82.93
2018-02-08T11:20:36.031Z,74.40
2018-02-08T11:23:03.590Z,70.17
2018-02-08T11:25:31.151Z,74.13
2018-02-08T11:27:58.709Z,65.37
2018-02-08T11:30:26.268Z,89.70
2018-02-08T11:32:53.828Z,84.27
2018-02-08T11:35:21.276Z,91.10
2018-02-08T11:37:48.844Z,78.23
2018-02-08T11:40:16.356Z,66.20
2018-02-08T11:42:43.861Z,71.00
2018-02-08T11:45:11.419Z,66.67
2018-02-08T11:47:38.877Z,68.90
2018-02-08T11:50:06.334Z,71.33
2018-02-08T11:52:33.767Z,75.03
2018-02-08T11:55:01.351Z,70.10
2018-02-08T11:57:28.910Z,54.27
2018-02-08T11:59:56.468Z,54.00
2018-02-08T12:02:23.964Z,53.60
2018-02-08T12:04:51.420Z,59.87
2018-02-08T12:07:18.942Z,56.90
2018-02-08T12:09:46.502Z,53.77
2018-02-08T12:12:13.997Z,60.90
2018-02-08T12:14:41.456Z,59.77
2018-02-08T12:17:08.976Z,56.17
2018-02-08T12:19:36.535Z,52.20
2018-02-08T12:22:04.094Z,59.53
2018-02-08T12:24:31.654Z,54.40
2018-02-08T12:26:59.104Z,59.77
2018-02-08T12:29:26.672Z,62.70
2018-02-08T12:31:54.163Z,73.27
2018-02-08T12:34:21.892Z,56.20
2018-02-08T12:36:49.389Z,57.73
2018-02-08T12:39:16.845Z,59.80
2018-02-08T12:41:44.570Z,59.47
2018-02-08T12:44:12.130Z,54.93
2018-02-08T12:46:39.588Z,60.00
2018-02-08T12:49:07.147Z,50.57
2018-02-08T12:51:34.714Z,61.50
2018-02-08T12:54:02.265Z,61.43
2018-02-08T12:56:29.760Z,59.23
2018-02-08T12:58:57.283Z,56.47
2018-02-08T13:01:24.840Z,52.33
2018-02-08T13:03:52.400Z,54.87
2018-02-08T13:06:19.961Z,56.43
2018-02-08T13:08:47.417Z,50.50
2018-02-08T13:11:15.081Z,51.87
2018-02-08T13:13:42.582Z,57.03
2018-02-08T13:16:10.953Z,54.70
2018-02-08T13:18:38.475Z,65.40
2018-02-08T13:21:05.931Z,55.30
2018-02-08T13:23:33.491Z,55.30
2018-02-08T13:26:01.050Z,58.13
2018-02-08T13:28:28.609Z,58.17
2018-02-08T13:30:56.068Z,57.37
2018-02-08T13:33:23.560Z,62.00
2018-02-08T13:35:51.083Z,56.30
2018-02-08T13:38:18.745Z,59.20
2018-02-08T13:40:48.867Z,62.47
2018-02-08T13:43:16.424Z,59.77
2018-02-08T13:45:43.872Z,60.53
2018-02-08T13:48:21.475Z,55.97
2018-02-08T13:51:04.088Z,55.73
2018-02-08T13:53:37.279Z,56.00
2018-02-08T13:56:22.385Z,60.53
2018-02-08T13:58:51.752Z,55.53
2018-02-08T14:08:46.124Z,61.90
2018-02-08T14:11:13.645Z,62.73
2018-02-08T14:13:41.140Z,63.83
2018-02-08T14:16:08.662Z,61.20
2018-02-08T14:18:36.221Z,53.83
2018-02-08T14:21:03.796Z,61.33
2018-02-08T14:23:31.340Z,60.40
2018-02-08T14:25:58.797Z,62.00
2018-02-08T14:28:26.356Z,58.83
2018-02-08T14:30:53.813Z,57.03
2018-02-08T14:40:42.115Z,56.10
2018-02-08T14:48:03.592Z,60.20
2018-02-08T14:52:58.059Z,65.10
2018-02-08T14:57:54.919Z,57.50
2018-02-08T15:00:22.424Z,63.70
2018-02-08T15:02:49.829Z,60.63
2018-02-08T15:05:17.336Z,66.90
2018-02-08T15:07:44.952Z,66.43
2018-02-08T15:10:12.513Z,63.60
2018-02-08T15:12:40.076Z,62.33
2018-02-08T15:15:07.640Z,82.47
2018-02-08T15:17:35.090Z,76.47
2018-02-08T15:20:02.648Z,80.17
2018-02-08T15:22:30.154Z,66.67
2018-02-08T15:24:57.664Z,71.60
2018-02-08T15:27:25.223Z,71.57
2018-02-08T15:29:52.783Z,65.13
2018-02-08T15:32:20.342Z,67.57
2018-02-08T15:34:47.836Z,69.83
2018-02-08T15:37:15.240Z,75.83
2018-02-08T15:39:42.816Z,67.40
2018-02-08T15:42:10.375Z,70.27
2018-02-08T15:44:37.937Z,67.43
2018-02-08T15:47:05.494Z,80.20
2018-02-08T15:49:33.156Z,67.57
2018-02-08T15:52:00.715Z,72.60
2018-02-08T15:54:28.208Z,75.23
2018-02-08T15:56:55.732Z,80.57
2018-02-08T15:59:24.216Z,64.77
2018-02-08T16:01:51.821Z,71.27
2018-02-08T16:04:19.331Z,83.17
2018-02-08T16:06:46.892Z,69.30
2018-02-08T16:09:14.451Z,73.70
2018-02-08T16:11:41.908Z,72.10
2018-02-08T16:14:10.389Z,69.73
2018-02-08T16:16:37.948Z,68.10
2018-02-08T16:19:05.508Z,67.07
2018-02-08T16:21:33.068Z,64.63
2018-02-08T16:24:00.516Z,71.07
2018-02-08T16:26:28.016Z,75.93
2018-02-08T16:28:55.643Z,76.77
2018-02-08T16:31:23.203Z,69.00
2018-02-08T16:33:50.761Z,86.63
2018-02-08T16:36:18.322Z,68.73
2018-02-08T16:38:45.881Z,71.87
2018-02-08T16:41:13.441Z,74.77
2018-02-08T16:43:41.000Z,68.20
2018-02-08T16:46:08.559Z,71.63
2018-02-08T16:48:36.118Z,86.50
2018-02-08T16:51:03.678Z,70.97
2018-02-08T16:53:31.136Z,67.13
2018-02-08T16:55:58.695Z,69.27
2018-02-08T16:58:26.192Z,68.40
2018-02-08T17:00:53.877Z,70.83
2018-02-08T17:03:22.093Z,69.63
2018-02-08T17:05:49.649Z,74.03
2018-02-08T17:08:17.145Z,77.43
2018-02-08T17:10:44.618Z,70.40
2018-02-08T17:13:12.045Z,75.23
2018-02-08T17:15:39.579Z,72.20
2018-02-08T17:18:07.177Z,72.07
2018-02-08T17:20:34.698Z,73.30
2018-02-08T17:23:02.258Z,76.80
2018-02-08T17:25:29.817Z,73.37
2018-02-08T17:27:57.478Z,79.57
2018-02-08T17:30:25.040Z,76.77
2018-02-08T17:32:52.533Z,82.53
2018-02-08T17:35:20.055Z,83.57
2018-02-08T17:38:03.831Z,78.67
2018-02-08T17:40:45.809Z,74.97
2018-02-08T17:43:13.780Z,77.17
2018-02-08T17:45:55.049Z,74.50
2018-02-08T17:48:27.565Z,75.57
2018-02-08T17:50:55.179Z,75.43
2018-02-08T17:53:22.692Z,73.03
2018-02-08T17:55:50.298Z,77.73
2018-02-08T17:58:17.857Z,74.70
2018-02-08T18:00:45.313Z,75.23
2018-02-08T18:03:12.978Z,73.97
2018-02-08T18:05:40.535Z,71.20
2018-02-08T18:08:08.029Z,72.77
2018-02-08T18:10:35.503Z,79.27
2018-02-08T18:13:03.009Z,91.70
2018-02-08T18:15:30.434Z,87.27
2018-02-08T18:17:57.908Z,71.70
2018-02-08T18:20:25.481Z,83.00
2018-02-08T18:22:53.041Z,78.03
2018-02-08T18:25:20.601Z,113.47
2018-02-08T18:27:48.100Z,204.13
2018-02-08T18:30:15.735Z,191.70
2018-02-08T18:32:43.279Z,155.80
2018-02-08T18:35:10.864Z,133.17
2018-02-08T18:37:38.400Z,106.70
2018-02-08T18:40:05.957Z,116.97
2018-02-08T18:42:33.526Z,108.30
2018-02-08T18:45:01.076Z,98.03
2018-02-08T18:47:28.639Z,109.60
2018-02-08T18:49:56.094Z,108.13
2018-02-08T18:52:23.689Z,99.57
2018-02-08T18:54:51.147Z,118.60
2018-02-08T18:57:18.669Z,98.10
2018-02-08T18:59:46.164Z,111.07
2018-02-08T19:02:13.619Z,101.70
2018-02-08T19:04:41.143Z,108.00
2018-02-08T19:07:08.905Z,105.53
2018-02-08T19:09:36.494Z,113.50
2018-02-08T19:12:04.026Z,107.23
2018-02-08T19:14:31.585Z,111.03
2018-02-08T19:16:59.144Z,108.17
2018-02-08T19:19:26.704Z,113.50
2018-02-08T19:21:54.365Z,112.33
2018-02-08T19:24:21.925Z,110.13
2018-02-08T19:26:49.587Z,104.80
2018-02-08T19:29:17.057Z,111.53
2018-02-08T19:31:44.604Z,102.47
2018-02-08T19:34:12.265Z,103.77
2018-02-08T19:36:39.760Z,106.60
2018-02-08T19:39:07.229Z,99.63
2018-02-08T19:41:34.656Z,95.27
2018-02-08T19:44:02.094Z,101.50
2018-02-08T19:46:29.588Z,101.63
2018-02-08T19:48:57.043Z,96.40
2018-02-08T19:51:24.501Z,91.33
2018-02-08T19:53:52.229Z,95.93
2018-02-08T19:56:19.740Z,87.17
2018-02-08T19:58:47.139Z,84.77
2018-02-08T20:01:14.702Z,91.97
2018-02-08T20:03:42.262Z,83.70
2018-02-08T20:06:09.718Z,87.90
2018-02-08T20:08:37.278Z,86.37
2018-02-08T20:11:04.838Z,93.60
2018-02-08T20:13:32.399Z,101.93
2018-02-08T20:15:59.957Z,98.30
2018-02-08T20:18:27.395Z,92.13
2018-02-08T20:20:54.862Z,84.27
2018-02-08T20:23:22.431Z,90.30
2018-02-08T20:25:50.029Z,86.13
2018-02-08T20:28:17.554Z,97.17
2018-02-08T20:30:50.843Z,91.93
2018-02-08T20:33:18.410Z,91.60
2018-02-08T20:35:45.962Z,93.07
2018-02-08T20:38:13.727Z,95.03
2018-02-08T20:40:41.286Z,89.67
2018-02-08T20:43:28.404Z,92.80
2018-02-08T20:45:55.963Z,92.43
2018-02-08T20:48:23.833Z,79.77
2018-02-08T20:50:51.324Z,96.20
2018-02-08T20:53:18.846Z,81.73
2018-02-08T20:55:46.406Z,91.00
2018-02-08T20:58:14.068Z,82.93
2018-02-08T21:00:41.633Z,84.23
2018-02-08T21:03:09.288Z,98.60
2018-02-08T21:05:36.849Z,93.57
2018-02-08T21:08:04.888Z,89.07
2018-02-08T21:10:32.479Z,101.03
2018-02-08T21:13:00.039Z,94.03
2018-02-08T21:15:27.600Z,90.13
2018-02-08T21:17:55.158Z,102.40
2018-02-08T21:20:22.728Z,107.03
2018-02-08T21:22:50.137Z,90.10
2018-02-08T21:25:17.733Z,97.73
2018-02-08T21:27:45.293Z,108.73
2018-02-08T21:30:12.955Z,101.23
2018-02-08T21:32:40.411Z,94.13
2018-02-08T21:35:08.008Z,94.07
2018-02-08T21:37:35.532Z,93.57
2018-02-08T21:40:03.093Z,94.73
2018-02-08T21:42:30.585Z,97.40
2018-02-08T21:44:58.043Z,105.93
2018-02-08T21:47:25.491Z,90.83
2018-02-08T21:49:52.956Z,98.27
2018-02-08T21:52:20.416Z,103.40
2018-02-08T21:54:47.872Z,92.53
2018-02-08T21:57:15.494Z,118.80
2018-02-08T21:59:43.053Z,110.60
2018-02-08T22:02:10.716Z,132.77
2018-02-08T22:04:38.276Z,121.87
2018-02-08T22:07:05.835Z,127.53
2018-02-08T22:09:33.264Z,129.17
2018-02-08T22:12:00.852Z,140.83
2018-02-08T22:14:28.295Z,151.47
2018-02-08T22:16:55.845Z,116.63
2018-02-08T22:19:23.529Z,124.07
2018-02-08T22:21:50.988Z,135.83
2018-02-08T22:24:18.583Z,133.00
2018-02-08T22:26:46.028Z,113.40
2018-02-08T22:29:13.502Z,116.80
2018-02-08T22:31:41.942Z,118.27
2018-02-08T22:34:10.115Z,112.40
2018-02-08T22:36:38.208Z,105.40
2018-02-08T22:39:05.624Z,104.70
2018-02-08T22:41:33.202Z,116.53
2018-02-08T22:44:01.378Z,99.40
2018-02-08T22:46:28.872Z,108.80
2018-02-08T22:48:56.394Z,124.30
2018-02-08T22:51:23.958Z,91.37
2018-02-08T22:53:51.513Z,93.83
2018-02-08T22:56:19.128Z,101.10
2018-02-08T22:58:46.635Z,96.33
2018-02-08T23:01:14.089Z,109.43
2018-02-08T23:03:41.648Z,92.10
2018-02-08T23:06:09.208Z,93.00
2018-02-08T23:08:36.767Z,96.00
2018-02-08T23:11:04.430Z,108.27
2018-02-08T23:13:32.094Z,92.63
2018-02-08T23:15:59.649Z,91.73
2018-02-08T23:18:27.313Z,108.13
2018-02-08T23:20:54.733Z,94.50
2018-02-08T23:23:22.328Z,99.90
2018-02-08T23:25:49.824Z,103.87
2018-02-08T23:28:17.357Z,105.03
2018-02-08T23:30:44.905Z,116.93
2018-02-08T23:33:12.464Z,125.40
2018-02-08T23:35:40.024Z,112.10
2018-02-08T23:38:07.445Z,111.43
2018-02-08T23:40:35.042Z,93.30
2018-02-08T23:43:02.538Z,114.47
2018-02-08T23:45:30.056Z,108.10
2018-02-08T23:47:57.615Z,118.63
2018-02-08T23:50:25.075Z,100.37
2018-02-08T23:52:52.632Z,102.03
2018-02-08T23:55:20.044Z,109.13
2018-02-08T23:57:47.546Z,100.90
